CSUN Campus Station - National Weather Service Data Page - PST Time




                Date      RH     Dew  Seasonal     Current   Max Air   Min Air    Wind    Wind    Wind    Gust     Bar    Rain
                Time       %   Point      Rain    Air Temp     Since     Since   Speed    Gust     Dir     Dir   Press   Total
                               Deg F    Inches       Deg F  Midnight  Midnight     MPH     MPH                      mb  Inches
------------------------------------------------------------------------------------------------------------------------------
    11/23/2014 00:00      47    44.1      0.40        64.2      74.4      45.8       5      17     322     323    1015    0.00
    11/23/2014 00:10      47    43.6      0.40        63.9      64.4      63.6       6      20     337      39    1015    0.00
    11/23/2014 00:20      46    42.7      0.40        63.8      64.4      63.5      10      25     326     315    1015    0.00
    11/23/2014 00:30      46    42.4      0.40        63.5      64.4      63.1       6      16     342     307    1015    0.00
    11/23/2014 00:40      45    42.0      0.40        63.3      64.4      63.1       7      24     342       5    1016    0.00
    11/23/2014 00:50      45    41.5      0.40        63.1      64.4      62.9       8      24     330     335    1016    0.00
    11/23/2014 01:00      44    41.0      0.40        63.0      64.4      62.6       6      16     312     342    1016    0.00
    11/23/2014 01:10      44    40.6      0.40        62.9      64.4      62.6       7      18     303     331    1015    0.00
    11/23/2014 01:20      43    40.3      0.40        62.9      64.4      62.6       8      27     326     324    1015    0.00
    11/23/2014 01:30      43    40.2      0.40        62.9      64.4      62.6       8      25     332     328    1015    0.00
    11/23/2014 01:40      44    40.6      0.40        62.7      64.4      62.5       9      24     331     330    1015    0.00
    11/23/2014 01:50      45    40.6      0.40        62.6      64.4      62.3       9      26     337     352    1015    0.00
    11/23/2014 02:00      43    40.4      0.40        62.5      64.4      62.2       8      23     339      90    1015    0.00
    11/23/2014 02:10      42    39.2      0.40        62.9      64.4      62.2       9      21     324     338    1015    0.00
    11/23/2014 02:20      43    39.6      0.40        62.8      64.4      62.2       9      25     327       5    1015    0.00
    11/23/2014 02:30      44    39.7      0.40        62.5      64.4      62.2       5      13     345     322    1016    0.00
    11/23/2014 02:40      44    40.0      0.40        62.1      64.4      61.7       3      12      12     341    1016    0.00
    11/23/2014 02:50      45    40.1      0.40        62.0      64.4      61.7       5      17     341     330    1016    0.00
    11/23/2014 03:00      45    40.4      0.40        61.9      64.4      61.7       7      22     326     344    1017    0.00
    11/23/2014 03:10      45    40.5      0.40        61.8      64.4      61.5       8      18     313     348    1016    0.00
    11/23/2014 03:20      46    40.4      0.40        61.6      64.4      61.4      10      33     316     292    1016    0.00
    11/23/2014 03:30      46    40.5      0.40        61.4      64.4      61.2       8      23     321     341    1016    0.00
    11/23/2014 03:40      46    40.4      0.40        61.3      64.4      61.0       9      26     319     305    1016    0.00
    11/23/2014 03:50      44    39.6      0.40        61.4      64.4      61.0       8      21     340       2    1016    0.00
    11/23/2014 04:00      44    39.5      0.40        61.3      64.4      61.0       5      14      24      16    1016    0.00
    11/23/2014 04:10      44    39.2      0.40        61.2      64.4      60.9       6      25      14     340    1016    0.00
    11/23/2014 04:20      45    39.4      0.40        61.4      64.4      60.9       9      26     350      15    1017    0.00
    11/23/2014 04:30      45    39.8      0.40        61.3      64.4      60.9       9      22     345     354    1017    0.00
    11/23/2014 04:40      45    39.8      0.40        61.1      64.4      60.9       9      22     349     343    1017    0.00
    11/23/2014 04:50      45    39.6      0.40        61.0      64.4      60.8       6      16     347     338    1017    0.00
    11/23/2014 05:00      46    39.8      0.40        60.8      64.4      60.6       5      15     348     351    1017    0.00
    11/23/2014 05:10      46    39.8      0.40        60.9      64.4      60.6       7      19     346     351    1017    0.00
    11/23/2014 05:20      45    39.7      0.40        60.8      64.4      60.6       7      20     352      88    1017    0.00
    11/23/2014 05:30      46    39.9      0.40        61.0      64.4      60.6       8      20     351     337    1017    0.00
    11/23/2014 05:40      46    40.1      0.40        60.9      64.4      60.6       9      23     349     348    1017    0.00
    11/23/2014 05:50      46    40.0      0.40        60.8      64.4      60.6       8      19     351     352    1018    0.00
    11/23/2014 06:00      46    39.8      0.40        60.6      64.4      60.3       6      15     351       4    1018    0.00
    11/23/2014 06:10      47    39.9      0.40        60.3      64.4      60.0       5      12     355     350    1018    0.00
    11/23/2014 06:20      46    39.6      0.40        60.3      64.4      60.0       5      12     336     318    1018    0.00
    11/23/2014 06:30      46    39.4      0.40        60.4      64.4      60.0       5      14     344       4    1019    0.00
    11/23/2014 06:40      46    39.5      0.40        60.4      64.4      60.0       5      13     342     337    1019    0.00
    11/23/2014 06:50      45    39.2      0.40        60.2      64.4      60.0       4      11     337     343    1019    0.00
    11/23/2014 07:00      46    39.0      0.40        60.4      64.4      60.0       5      13     341     336    1019    0.00
    11/23/2014 07:10      47    39.5      0.40        60.1      64.4      59.9       4       9     350     346    1019    0.00
    11/23/2014 07:20      46    39.5      0.40        60.1      64.4      59.9       4      12     336     336    1019    0.00
    11/23/2014 07:30      46    39.3      0.40        60.3      64.4      59.9       5      12     338     338    1019    0.00
    11/23/2014 07:40      46    39.3      0.40        60.4      64.4      59.9       4       9     334     346    1020    0.00
    11/23/2014 07:50      44    39.4      0.40        60.8      64.4      59.9       4       9     339     348    1020    0.00
    11/23/2014 08:00      43    38.8      0.40        61.3      64.4      59.9       4       9     332     325    1020    0.00
    11/23/2014 08:10      42    38.4      0.40        61.5      64.4      59.9       3       7     323     340    1020    0.00
    11/23/2014 08:20      39    37.7      0.40        62.0      64.4      59.9       2       7     322     354    1020    0.00
    11/23/2014 08:30      34    35.8      0.40        63.0      64.4      59.9       4      10     319       0    1020    0.00
    11/23/2014 08:40      33    34.7      0.40        64.0      64.4      59.9       4      12     325     333    1020    0.00
    11/23/2014 08:50      30    33.9      0.40        64.7      65.0      59.9       3       8     347     342    1021    0.00
    11/23/2014 09:00      30    32.7      0.40        65.0      65.2      59.9       4      10     342     349    1021    0.00
    11/23/2014 09:10      27    31.8      0.40        65.6      66.3      59.9       5      11     352       7    1021    0.00
    11/23/2014 09:20      24    29.9      0.40        66.6      67.0      59.9       5      12     351     331    1021    0.00
    11/23/2014 09:30      21    25.6      0.40        67.0      67.2      59.9       4      12       4     313    1021    0.00
    11/23/2014 09:40      17    23.3      0.40        67.1      67.5      59.9       5      14       2     347    1021    0.00
    11/23/2014 09:50      16    20.8      0.40        67.6      68.0      59.9       6      14       3     286    1021    0.00
    11/23/2014 10:00      16    19.7      0.40        67.6      68.0      59.9       7      19       7     344    1021    0.00
    11/23/2014 10:10      15    19.5      0.40        67.8      68.1      59.9       9      22     358     345    1021    0.00
    11/23/2014 10:20      15    19.2      0.40        68.0      68.4      59.9      11      31     357     345    1020    0.00
    11/23/2014 10:30      15    19.6      0.40        68.5      69.0      59.9       9      25     358       0    1020    0.00
    11/23/2014 10:40      15    19.7      0.40        68.6      69.0      59.9      10      22     359     337    1020    0.00
    11/23/2014 10:50      15    19.2      0.40        69.0      69.5      59.9      11      23     357       0    1020    0.00
    11/23/2014 11:00      13    17.7      0.40        69.5      69.9      59.9      12      24     352     351    1019    0.00
    11/23/2014 11:10      12    16.3      0.40        69.6      70.0      59.9      10      24     349     332    1019    0.00
    11/23/2014 11:20      12    15.6      0.40        69.7      70.0      59.9      12      22     354     328    1019    0.00
    11/23/2014 11:30      12    15.0      0.40        70.3      70.6      59.9      12      22     353     352    1019    0.00
    11/23/2014 11:40      11    14.0      0.40        70.9      71.2      59.9      12      24     359      18    1019    0.00
    11/23/2014 11:50      11    14.4      0.40        71.0      71.5      59.9      11      23     359      -1    1019    0.00
    11/23/2014 12:00      11    13.8      0.40        71.2      71.5      59.9      11      24      12      21    1019    0.00
    11/23/2014 12:10      10    13.2      0.40        71.3      71.7      59.9      11      22      12     335    1018    0.00
    11/23/2014 12:20      10    12.9      0.40        71.4      71.7      59.9      10      25      14     338    1018    0.00
    11/23/2014 12:30      10    12.3      0.40        71.5      72.1      59.9       9      22      23       0    1018    0.00
    11/23/2014 12:40      10    12.1      0.40        71.8      72.3      59.9      10      23       4     341    1018    0.00
    11/23/2014 12:50       9    11.1      0.40        72.0      72.3      59.9       9      21      23     331    1018    0.00
    11/23/2014 13:00       9    10.8      0.40        71.9      72.3      59.9       9      22      27     348    1018    0.00
    11/23/2014 13:10       9    10.7      0.40        72.0      72.5      59.9       9      24      34      36    1018    0.00
    11/23/2014 13:20       9    10.6      0.40        72.4      72.8      59.9       8      19      21      11    1018    0.00
    11/23/2014 13:30       9    10.3      0.40        72.3      72.8      59.9       8      20      20      32    1018    0.00
    11/23/2014 13:40       9     9.6      0.40        72.6      72.8      59.9       9      20      20       4    1018    0.00
    11/23/2014 13:50       8    10.0      0.40        72.7      73.0      59.9       8      19      10      11    1018    0.00
    11/23/2014 14:00       9     9.2      0.40        72.4      73.0      59.9      12      26       3       5    1018    0.00
    11/23/2014 14:10       8     8.9      0.40        72.3      73.0      59.9      11      22       3       1    1018    0.00
    11/23/2014 14:20       9     8.9      0.40        72.1      73.0      59.9       9      20       6     345    1018    0.00
    11/23/2014 14:30       9     8.9      0.40        72.0      73.0      59.9       5      16      16       0    1018    0.00
    11/23/2014 14:40       9     8.7      0.40        71.5      73.0      59.9       6      21      15       0    1018    0.00
    11/23/2014 14:50       8     8.3      0.40        71.6      73.0      59.9       8      23      27       0    1018    0.00
    11/23/2014 15:00       8     8.0      0.40        71.7      73.0      59.9       7      17      14     351    1018    0.00
    11/23/2014 15:10       8     7.3      0.40        71.6      73.0      59.9       8      21      16      40    1018    0.00
    11/23/2014 15:20       8     7.3      0.40        71.5      73.0      59.9       6      17      15      12    1018    0.00
    11/23/2014 15:30       8     7.0      0.40        71.6      73.0      59.9       7      14      17      55    1018    0.00
    11/23/2014 15:40       8     7.3      0.40        71.7      73.0      59.9       5      15      12      16    1018    0.00
    11/23/2014 15:50       8     6.7      0.40        71.3      73.0      59.9       8      20      19      25    1018    0.00
    11/23/2014 16:00       8     6.0      0.40        71.0      73.0      59.9       9      18      18       1    1018    0.00
    11/23/2014 16:10       8     6.1      0.40        70.8      73.0      59.9       7      20       4       9    1018    0.00
    11/23/2014 16:20       8     6.0      0.40        70.3      73.0      59.9       8      18       4      12    1018    0.00
    11/23/2014 16:30       8     6.0      0.40        69.8      73.0      59.9       8      20     351       0    1019    0.00
    11/23/2014 16:40       8     6.0      0.40        69.6      73.0      59.9       7      18     360     344    1019    0.00
    11/23/2014 16:50       8     5.9      0.40        69.2      73.0      59.9       6      17     358       8    1019    0.00
    11/23/2014 17:00       8     5.8      0.40        68.8      73.0      59.9       5      15     357     330    1018    0.00
    11/23/2014 17:10       8     5.9      0.40        68.4      73.0      59.9       5      18     356     344    1018    0.00
    11/23/2014 17:20       8     5.7      0.40        68.1      73.0      59.9       5      14     354      34    1018    0.00
    11/23/2014 17:30       8     5.6      0.40        68.0      73.0      59.9       5      14       1      10    1018    0.00
    11/23/2014 17:40       8     5.3      0.40        68.1      73.0      59.9       5      14     347      15    1018    0.00
    11/23/2014 17:50       9     5.6      0.40        67.7      73.0      59.9       4      14     342     333    1018    0.00
    11/23/2014 18:00       9     5.9      0.40        67.5      73.0      59.9       5      12     345     335    1019    0.00
    11/23/2014 18:10       9     5.9      0.40        67.4      73.0      59.9       5      12     337     347    1019    0.00
    11/23/2014 18:20       9     6.2      0.40        67.1      73.0      59.9       2       8     313     318    1019    0.00
    11/23/2014 18:30      10     6.7      0.40        66.3      73.0      59.9       1       5     307     289    1019    0.00
    11/23/2014 18:40      10     7.2      0.40        65.6      73.0      59.9       1       4     322     196    1019    0.00
    11/23/2014 18:50      10     6.7      0.40        65.6      73.0      59.9       2      10      52      45    1019    0.00
    11/23/2014 19:00      10     7.6      0.40        65.4      73.0      59.9       2       4     105     135    1019    0.00
    11/23/2014 19:10      11     7.8      0.40        64.7      73.0      59.9       2       7     100     119    1019    0.00
    11/23/2014 19:20      10     7.9      0.40        64.0      73.0      59.9       2       6     111      54    1019    0.00
    11/23/2014 19:30      10     6.5      0.40        65.6      73.0      59.9       1       4      60     341    1019    0.00
    11/23/2014 19:40       9     6.3      0.40        65.8      73.0      59.9       3      13      64      33    1019    0.00
    11/23/2014 19:50      10     6.3      0.40        66.2      73.0      59.9       2       7      94     141    1020    0.00
    11/23/2014 20:00       9     6.5      0.40        65.9      73.0      59.9       4       8      89      66    1020    0.00
    11/23/2014 20:10      10     6.8      0.40        65.7      73.0      59.9       4       9      66      30    1020    0.00
    11/23/2014 20:20       9     6.9      0.40        65.1      73.0      59.9       3      14       4     337    1020    0.00
    11/23/2014 20:30       9     5.6      0.40        65.7      73.0      59.9       3      10       7      37    1020    0.00
    11/23/2014 20:40      10     5.8      0.40        65.3      73.0      59.9       3      10       2     354    1020    0.00
    11/23/2014 20:50       8     4.2      0.40        65.4      73.0      59.9       4      14     350     338    1020    0.00
    11/23/2014 21:00       8     3.8      0.40        66.3      73.0      59.9       4      13     345     301    1020    0.00
    11/23/2014 21:10       8     3.7      0.40        66.3      73.0      59.9       4      14       8     347    1020    0.00
    11/23/2014 21:20       8     4.0      0.40        66.0      73.0      59.9       5       9      44      58    1020    0.00
    11/23/2014 21:30       9     4.8      0.40        65.4      73.0      59.9       3       6      39      39    1020    0.00
    11/23/2014 21:40      10     5.6      0.40        64.1      73.0      59.9       1       5      49      35    1020    0.00
    11/23/2014 21:50      12     6.7      0.40        63.7      73.0      59.9       1       5      59     275    1020    0.00
    11/23/2014 22:00      11     8.1      0.40        62.6      73.0      59.9       1       3     168     125    1020    0.00
    11/23/2014 22:10      13     8.7      0.40        60.8      73.0      59.9       0       3     258     240    1020    0.00
    11/23/2014 22:20      13     8.7      0.40        59.7      73.0      59.2       0       3      75      80    1020    0.00
    11/23/2014 22:30      13     8.8      0.40        59.8      73.0      59.2       1       3     143     150    1020    0.00
    11/23/2014 22:40      13     8.9      0.40        59.7      73.0      59.2       1       4     138     132    1020    0.00
    11/23/2014 22:50      11     7.7      0.40        59.9      73.0      59.2       2       7     107     168    1020    0.00
    11/23/2014 23:00      12     7.5      0.40        62.0      73.0      59.2       3       8     177     184    1020    0.00
    11/23/2014 23:10      12     9.0      0.40        60.3      73.0      59.2       2       5     175     194    1020    0.00
    11/23/2014 23:20      12     7.8      0.40        60.6      73.0      59.2       0       3     153     204    1020    0.00
    11/23/2014 23:30      12     7.5      0.40        61.1      73.0      59.2       1       6      89      85    1020    0.00
    11/23/2014 23:40      11     7.9      0.40        60.8      73.0      59.2       0       3     159     146    1020    0.00
    11/23/2014 23:50      11     6.8      0.40        61.3      73.0      59.2       1       4     141       9    1020    0.00
    11/24/2014 00:00      11     6.5      0.40        61.5      73.0      59.2       1       4     258     267    1020    0.00
    11/24/2014 00:10      11     7.2      0.40        61.8      62.3      61.4       1       4     143     163    1020    0.00
    11/24/2014 00:20      10     6.9      0.40        61.6      62.3      61.2       1       7     320     311    1020    0.00
    11/24/2014 00:30      10     6.0      0.40        63.2      63.7      61.2       4      12     332     341    1020    0.00
    11/24/2014 00:40      11     7.1      0.40        63.5      63.9      61.2       6      17     341     351    1020    0.00
    11/24/2014 00:50      11     8.3      0.40        62.9      63.9      61.2       6      15     337     344    1020    0.00
    11/24/2014 01:00      11     7.7      0.40        62.9      63.9      61.2       7      15     339     341    1020    0.00
    11/24/2014 01:10      11     7.2      0.40        63.0      63.9      61.2       7      16     337      28    1020    0.00
    11/24/2014 01:20      11     7.3      0.40        62.8      63.9      61.2       6      15     344     352    1020    0.00
    11/24/2014 01:30      11     7.2      0.40        62.8      63.9      61.2       5      11     347       2    1020    0.00
    11/24/2014 01:40      11     7.4      0.40        62.5      63.9      61.2       4      10     347     336    1020    0.00
    11/24/2014 01:50      11     7.5      0.40        62.6      63.9      61.2       5      12     329     349    1020    0.00
    11/24/2014 02:00      11     7.7      0.40        62.9      63.9      61.2       6      17     337     339    1020    0.00
    11/24/2014 02:10      11     8.2      0.40        62.9      63.9      61.2       6      17     345     328    1020    0.00
    11/24/2014 02:20      12     8.6      0.40        62.8      63.9      61.2       6      17     336     332    1020    0.00
    11/24/2014 02:30      12     9.0      0.40        63.3      63.9      61.2       5      14     344     336    1020    0.00
    11/24/2014 02:40      12     9.4      0.40        62.9      63.9      61.2       5      11      48      28    1020    0.00
    11/24/2014 02:50      13     9.5      0.40        61.7      63.9      61.2       5       9      62      70    1020    0.00
    11/24/2014 03:00      13    10.9      0.40        62.3      63.9      61.2       6      19     348     347    1020    0.00
    11/24/2014 03:10      14    12.4      0.40        62.7      63.9      61.2       8      20     344     333    1020    0.00
    11/24/2014 03:20      14    12.7      0.40        62.3      63.9      61.2       9      21     339     329    1020    0.00
    11/24/2014 03:30      15    12.7      0.40        61.6      63.9      61.2       9      17     337     341    1020    0.00
    11/24/2014 03:40      15    13.0      0.40        61.5      63.9      61.1       9      20     341     333    1020    0.00
    11/24/2014 03:50      15    13.2      0.40        61.3      63.9      61.0      10      20     339     327    1020    0.00
    11/24/2014 04:00      15    13.3      0.40        61.0      63.9      60.6       8      19     340      16    1020    0.00
    11/24/2014 04:10      16    13.6      0.40        60.6      63.9      60.3       8      18     339     325    1020    0.00
    11/24/2014 04:20      16    13.6      0.40        60.5      63.9      60.3       7      14     335     339    1020    0.00
    11/24/2014 04:30      16    13.8      0.40        60.3      63.9      60.0       7      16     333     344    1020    0.00
    11/24/2014 04:40      16    13.8      0.40        60.0      63.9      59.7       7      16     331     285    1020    0.00
    11/24/2014 04:50      16    13.6      0.40        59.9      63.9      59.7       6      13     329     301    1020    0.00
    11/24/2014 05:00      16    13.9      0.40        60.2      63.9      59.7       7      18     332       2    1020    0.00
    11/24/2014 05:10      17    14.6      0.40        59.9      63.9      59.7       8      15     333     321    1020    0.00
    11/24/2014 05:20      18    15.3      0.40        59.6      63.9      59.4       8      21     333     336    1020    0.00
    11/24/2014 05:30      18    15.6      0.40        59.3      63.9      58.9       7      17     331     328    1021    0.00
    11/24/2014 05:40      18    15.3      0.40        59.0      63.9      58.8       6      13     330     285    1021    0.00
    11/24/2014 05:50      18    16.1      0.40        58.6      63.9      58.3       7      17     334     345    1021    0.00
    11/24/2014 06:00      18    14.8      0.40        58.7      63.9      58.3       7      17     332     334    1021    0.00
    11/24/2014 06:10      17    14.5      0.40        58.8      63.9      58.3       8      16     336     337    1021    0.00
    11/24/2014 06:20      17    14.3      0.40        58.7      63.9      58.3       7      17     333     347    1021    0.00
    11/24/2014 06:30      17    14.3      0.40        58.6      63.9      58.3       7      17     331     324    1021    0.00
    11/24/2014 06:40      17    14.4      0.40        58.5      63.9      58.3       7      15     335     354    1021    0.00
    11/24/2014 06:50      18    14.6      0.40        58.4      63.9      58.2       8      18     334       0    1021    0.00
    11/24/2014 07:00      17    14.7      0.40        58.6      63.9      58.2       8      16     330     311    1021    0.00
    11/24/2014 07:10      17    14.4      0.40        59.0      63.9      58.2       8      16     333     325    1021    0.00
    11/24/2014 07:20      17    14.1      0.40        59.6      63.9      58.2       7      13     334     293    1021    0.00
    11/24/2014 07:30      15    13.9      0.40        60.1      63.9      58.2       7      16     332     331    1021    0.00
    11/24/2014 07:40      15    13.0      0.40        61.0      63.9      58.2       7      15     328     334    1021    0.00
    11/24/2014 07:50      14    12.7      0.40        61.4      63.9      58.2       7      18     330     348    1022    0.00
    11/24/2014 08:00      13    11.7      0.40        62.3      63.9      58.2       7      16     331     343    1022    0.00
    11/24/2014 08:10      13    11.8      0.40        62.7      63.9      58.2       6      19     333     339    1022    0.00
    11/24/2014 08:20      12    11.2      0.40        63.3      64.0      58.2       7      21     348     329    1022    0.00
    11/24/2014 08:30      12    10.8      0.40        64.1      64.5      58.2       7      20     348     342    1022    0.00
    11/24/2014 08:40      12    10.7      0.40        64.6      65.1      58.2       7      19     345      12    1022    0.00
    11/24/2014 08:50      12    10.4      0.40        65.2      65.6      58.2       9      17     340     349    1022    0.00
    11/24/2014 09:00      12    10.6      0.40        65.7      66.0      58.2       8      18     344     341    1022    0.00
    11/24/2014 09:10      11    11.1      0.40        66.2      66.6      58.2       7      19     347      25    1023    0.00
    11/24/2014 09:20      11    11.2      0.40        66.6      66.9      58.2       9      20     348     330    1023    0.00
    11/24/2014 09:30      11    11.4      0.40        67.0      67.4      58.2       9      23     352       7    1023    0.00
    11/24/2014 09:40      11    11.3      0.40        67.7      68.1      58.2       8      22     350     329    1023    0.00
    11/24/2014 09:50      11    11.6      0.40        68.2      68.5      58.2       8      25     352     322    1023    0.00
    11/24/2014 10:00      11    11.7      0.40        68.6      68.9      58.2       9      23     349     351    1023    0.00
    11/24/2014 10:10      11    11.9      0.40        69.1      69.4      58.2       7      18     349      99    1023    0.00
    11/24/2014 10:20      10    11.6      0.40        69.3      69.6      58.2      10      21     350     325    1023    0.00
    11/24/2014 10:30      10    11.1      0.40        70.1      70.4      58.2       9      23     355     348    1023    0.00
    11/24/2014 10:40      10    11.1      0.40        71.0      71.4      58.2       7      16     355     334    1023    0.00
    11/24/2014 10:50       9    10.4      0.40        71.2      71.5      58.2      10      21     348     326    1023    0.00
    11/24/2014 11:00       9    10.1      0.40        71.8      72.3      58.2       8      23     352     346    1023    0.00
    11/24/2014 11:10       9    10.1      0.40        72.3      72.6      58.2       8      19     357     354    1023    0.00
    11/24/2014 11:20       9    10.4      0.40        72.6      72.9      58.2       6      17     347     354    1023    0.00
    11/24/2014 11:30       9    10.3      0.40        73.1      73.7      58.2       7      16     346      19    1022    0.00
    11/24/2014 11:40       9    10.5      0.40        72.8      73.7      58.2       8      18     338     350    1022    0.00
    11/24/2014 11:50       9    10.7      0.40        72.8      73.7      58.2       7      18     339     342    1022    0.00
    11/24/2014 12:00       9    11.2      0.40        73.3      73.9      58.2       7      16     346     347    1022    0.00
    11/24/2014 12:10       9    11.0      0.40        73.7      74.1      58.2       7      17     348     354    1022    0.00
    11/24/2014 12:20       9    10.6      0.40        73.9      74.4      58.2       7      21     343       1    1022    0.00
    11/24/2014 12:30       9    10.3      0.40        73.7      74.4      58.2       8      19     336     300    1022    0.00
    11/24/2014 12:40       8    10.3      0.40        74.2      74.7      58.2       7      15     331     340    1022    0.00
    11/24/2014 12:50       8    10.5      0.40        75.1      75.5      58.2       6      14     346     346    1021    0.00
    11/24/2014 13:00       8    10.2      0.40        75.0      75.5      58.2       7      25     348     337    1021    0.00
    11/24/2014 13:10       8    10.5      0.40        75.1      75.6      58.2       7      17     342     319    1021    0.00
    11/24/2014 13:20       8    10.3      0.40        75.5      75.8      58.2       6      16     346     348    1021    0.00
    11/24/2014 13:30       8     9.9      0.40        75.9      76.6      58.2       6      15     348     351    1021    0.00
    11/24/2014 13:40       7     9.7      0.40        76.1      76.6      58.2       6      16     354     351    1021    0.00
    11/24/2014 13:50       8     9.6      0.40        75.9      76.6      58.2       6      17     342     335    1021    0.00
    11/24/2014 14:00       7     9.7      0.40        75.8      76.6      58.2       7      18     349     349    1021    0.00
    11/24/2014 14:10       8     9.9      0.40        76.0      76.6      58.2       6      14     348     321    1021    0.00
    11/24/2014 14:20       8     9.7      0.40        75.4      76.6      58.2       9      20     354     337    1021    0.00
    11/24/2014 14:30       8     9.8      0.40        75.6      76.6      58.2       6      19     345     334    1021    0.00
    11/24/2014 14:40       8     9.8      0.40        75.6      76.6      58.2       6      15     350     352    1021    0.00
    11/24/2014 14:50       8     9.2      0.40        75.3      76.6      58.2       7      19     340     332    1021    0.00
    11/24/2014 15:00       8     9.2      0.40        74.9      76.6      58.2       7      17     358     345    1021    0.00
    11/24/2014 15:10       8     9.2      0.40        74.8      76.6      58.2       7      16     357       0    1021    0.00
    11/24/2014 15:20       8     9.3      0.40        74.8      76.6      58.2       5      13     359       3    1021    0.00
    11/24/2014 15:30       8     9.4      0.40        74.6      76.6      58.2       6      14     347      18    1021    0.00
    11/24/2014 15:40       8     9.6      0.40        74.2      76.6      58.2       7      17     351       0    1021    0.00
    11/24/2014 15:50       9     9.7      0.40        73.9      76.6      58.2       5      13     349     344    1021    0.00
    11/24/2014 16:00       8     9.8      0.40        73.4      76.6      58.2       7      18     353     344    1021    0.00
    11/24/2014 16:10       9     9.8      0.40        72.9      76.6      58.2       7      20     344     340    1021    0.00
    11/24/2014 16:20       9     9.5      0.40        72.5      76.6      58.2       7      18       1     348    1021    0.00
    11/24/2014 16:30       9     9.8      0.40        72.0      76.6      58.2       5      15     349     354    1021    0.00
    11/24/2014 16:40       9     9.5      0.40        71.5      76.6      58.2       6      15     349     335    1022    0.00
    11/24/2014 16:50       9     9.2      0.40        70.9      76.6      58.2       6      15     343     338    1022    0.00
    11/24/2014 17:00       9     8.8      0.40        70.5      76.6      58.2       7      19     344       1    1022    0.00
    11/24/2014 17:10       9     8.7      0.40        70.2      76.6      58.2       6      12     342     350    1022    0.00
    11/24/2014 17:20       9     8.6      0.40        69.9      76.6      58.2       7      16     343     349    1022    0.00
    11/24/2014 17:30       9     8.5      0.40        69.8      76.6      58.2       7      16     340     348    1022    0.00
    11/24/2014 17:40       9     8.6      0.40        69.6      76.6      58.2       7      21     347     335    1022    0.00
    11/24/2014 17:50       9     8.4      0.40        69.5      76.6      58.2       7      17     341     345    1022    0.00
    11/24/2014 18:00       9     8.4      0.40        69.2      76.6      58.2       6      17     346     352    1023    0.00
    11/24/2014 18:10       9     8.2      0.40        69.1      76.6      58.2       6      17     346     343    1023    0.00
    11/24/2014 18:20       9     8.1      0.40        69.1      76.6      58.2       6      16     351     352    1023    0.00
    11/24/2014 18:30       9     8.0      0.40        69.1      76.6      58.2       7      13     349       0    1023    0.00
    11/24/2014 18:40       9     7.8      0.40        69.2      76.6      58.2       8      16     348     339    1023    0.00
    11/24/2014 18:50       9     7.5      0.40        69.3      76.6      58.2       8      22     347     341    1023    0.00
    11/24/2014 19:00       9     7.5      0.40        69.3      76.6      58.2       8      18     348     338    1023    0.00
    11/24/2014 19:10       9     7.8      0.40        68.9      76.6      58.2       6      15     347     340    1023    0.00
    11/24/2014 19:20       9     7.8      0.40        68.6      76.6      58.2       6      15     351       0    1024    0.00
    11/24/2014 19:30       9     7.9      0.40        68.3      76.6      58.2       6      15     343     354    1024    0.00
    11/24/2014 19:40       9     7.8      0.40        68.2      76.6      58.2       5      17     350     355    1024    0.00
    11/24/2014 19:50       9     7.7      0.40        68.1      76.6      58.2       6      13     353     328    1024    0.00
    11/24/2014 20:00       9     7.7      0.40        68.1      76.6      58.2       6      16     357     347    1024    0.00
    11/24/2014 20:10       9     7.7      0.40        68.0      76.6      58.2       6      13     349       5    1024    0.00
    11/24/2014 20:20       9     7.6      0.40        68.0      76.6      58.2       6      12     355      12    1024    0.00
    11/24/2014 20:30       9     7.5      0.40        68.0      76.6      58.2       5      13     357      42    1024    0.00
    11/24/2014 20:40       9     7.4      0.40        68.0      76.6      58.2       6      17     358     351    1024    0.00
    11/24/2014 20:50       9     7.2      0.40        68.2      76.6      58.2       7      17     358       0    1024    0.00
    11/24/2014 21:00       9     7.2      0.40        67.9      76.6      58.2       5      14     351     333    1024    0.00
    11/24/2014 21:10       9     7.3      0.40        67.6      76.6      58.2       6      16     351     345    1024    0.00
    11/24/2014 21:20       9     7.1      0.40        67.7      76.6      58.2       7      16     350     341    1024    0.00
    11/24/2014 21:30       9     7.0      0.40        67.6      76.6      58.2       5      13     353     305    1024    0.00
    11/24/2014 21:40       9     7.0      0.40        67.6      76.6      58.2       6      17     347     335    1024    0.00
    11/24/2014 21:50       9     7.6      0.40        67.4      76.6      58.2       6      15     358      36    1024    0.00
    11/24/2014 22:00       9     6.6      0.40        67.3      76.6      58.2       8      16     359     331    1025    0.00
    11/24/2014 22:10       9     6.3      0.40        67.1      76.6      58.2       8      19     350       1    1024    0.00
    11/24/2014 22:20       9     6.0      0.40        67.0      76.6      58.2       7      14     354     336    1025    0.00
    11/24/2014 22:30       9     6.0      0.40        66.9      76.6      58.2       7      18     357       1    1025    0.00
    11/24/2014 22:40       9     5.8      0.40        66.5      76.6      58.2       5      14     350     351    1025    0.00
    11/24/2014 22:50       9     5.8      0.40        66.3      76.6      58.2       5      14     356      -1    1025    0.00
    11/24/2014 23:00       9     5.2      0.40        66.3      76.6      58.2       5      16     352     335    1025    0.00
    11/24/2014 23:10       9     4.8      0.40        66.7      76.6      58.2       5      14     349     341    1025    0.00
    11/24/2014 23:20       8     4.7      0.40        66.6      76.6      58.2       5      13     344      64    1025    0.00
    11/24/2014 23:30       8     4.2      0.40        66.7      76.6      58.2       6      11     350     323    1025    0.00
    11/24/2014 23:40       9     4.4      0.40        66.7      76.6      58.2       3      10     342     333    1025    0.00
    11/24/2014 23:50       9     4.9      0.40        66.0      76.6      58.2       6      11     339     346    1025    0.00
    11/25/2014 00:00       9     4.7      0.40        66.1      76.6      58.2       5      12     348      22    1025    0.00
    11/25/2014 00:10       9     4.6      0.40        66.2      66.7      65.8       6      16     343     335    1025    0.00
    11/25/2014 00:20       9     5.0      0.40        66.3      66.7      65.8       6      16     348     351    1025    0.00
    11/25/2014 00:30       9     5.1      0.40        65.9      66.7      65.7       5      15     354     350    1025    0.00
    11/25/2014 00:40       9     5.1      0.40        65.7      66.7      65.5       4      10     359       3    1025    0.00
    11/25/2014 00:50       9     5.9      0.40        65.3      66.7      65.0       3       8     357      23    1025    0.00
    11/25/2014 01:00      10     6.2      0.40        64.9      66.7      64.5       2       9     353     344    1025    0.00
    11/25/2014 01:10      10     5.9      0.40        64.4      66.7      64.1       2       6     347     343    1025    0.00
    11/25/2014 01:20       9     6.2      0.40        64.1      66.7      63.5       4       9     346       5    1025    0.00
    11/25/2014 01:30      10     5.8      0.40        64.6      66.7      63.5       3      10     345     333    1026    0.00
    11/25/2014 01:40       9     5.8      0.40        64.6      66.7      63.5       4      10     347     346    1026    0.00
    11/25/2014 01:50      10     5.9      0.40        64.5      66.7      63.5       4       8     349     350    1026    0.00
    11/25/2014 02:00      10     6.0      0.40        64.3      66.7      63.5       3       8     353       0    1026    0.00
    11/25/2014 02:10      10     5.9      0.40        64.0      66.7      63.5       3       7     356     347    1026    0.00
    11/25/2014 02:20      10     5.9      0.40        63.8      66.7      63.5       2       7     359     342    1026    0.00
    11/25/2014 02:30      10     6.0      0.40        63.4      66.7      62.8       2       4      19     346    1026    0.00
    11/25/2014 02:40      15     9.8      0.40        60.3      66.7      58.3       0       3     266     260    1026    0.00
    11/25/2014 02:50      21    12.6      0.40        56.8      66.7      54.6       1       3     209     153    1026    0.00
    11/25/2014 03:00      20    14.9      0.40        54.4      66.7      53.9       1       3     287     156    1026    0.00
    11/25/2014 03:10      23    15.1      0.40        53.8      66.7      52.6       1       3     284     289    1026    0.00
    11/25/2014 03:20      21    15.3      0.40        52.3      66.7      51.9       0       2     249     303    1026    0.00
    11/25/2014 03:30      22    14.5      0.40        52.8      66.7      51.9       1       2     315     293    1026    0.00
    11/25/2014 03:40      24    15.4      0.40        52.1      66.7      51.0       0       2     262     249    1026    0.00
    11/25/2014 03:50      21    14.5      0.40        51.6      66.7      51.0       1       2     331     340    1026    0.00
    11/25/2014 04:00      19    11.4      0.40        53.3      66.7      51.0       1       2     336     346    1026    0.00
    11/25/2014 04:10      29    15.0      0.40        52.9      66.7      50.7       0       1     339     332    1026    0.00
    11/25/2014 04:20      24    16.6      0.40        50.8      66.7      50.3       0       0       0     163    1026    0.00
    11/25/2014 04:30      25    16.5      0.40        50.3      66.7      49.7       0       0       0     300    1026    0.00
    11/25/2014 04:40      29    16.4      0.40        49.5      66.7      49.1       1       4     149     154    1026    0.00
    11/25/2014 04:50      28    17.5      0.40        49.3      66.7      48.8       0       2     131     137    1026    0.00
    11/25/2014 05:00      30    17.7      0.40        49.2      66.7      48.8       0       2     165     167    1026    0.00
    11/25/2014 05:10      29    18.0      0.40        49.1      66.7      48.8       0       2     326     334    1026    0.00
    11/25/2014 05:20      28    18.0      0.40        49.2      66.7      48.8       1       2     329     330    1027    0.00
    11/25/2014 05:30      29    18.3      0.40        48.8      66.7      48.3       0       1     332     333    1027    0.00
    11/25/2014 05:40      29    18.2      0.40        48.8      66.7      48.3       1       2     335     340    1027    0.00
    11/25/2014 05:50      27    18.1      0.40        48.6      66.7      48.3       0       1     331     340    1027    0.00
    11/25/2014 06:00      29    17.4      0.40        49.1      66.7      48.3       0       1     337     335    1027    0.00
    11/25/2014 06:10      31    18.0      0.40        48.7      66.7      48.1       0       0       0     343    1027    0.00
    11/25/2014 06:20      31    19.1      0.40        48.0      66.7      47.7       0       0       0     354    1027    0.00
    11/25/2014 06:30      30    19.1      0.40        48.1      66.7      47.7       0       0       0     355    1027    0.00
    11/25/2014 06:40      29    18.0      0.40        48.2      66.7      47.7       0       0       0      12    1027    0.00
    11/25/2014 06:50      31    18.8      0.40        48.2      66.7      47.7       0       1      90      97    1027    0.00
    11/25/2014 07:00      30    19.0      0.40        48.5      66.7      47.7       0       0       0     114    1027    0.00
    11/25/2014 07:10      30    19.1      0.40        48.6      66.7      47.7       0       0       0      49    1027    0.00
    11/25/2014 07:20      29    19.2      0.40        49.3      66.7      47.7       0       2     343     347    1027    0.00
    11/25/2014 07:30      30    20.1      0.40        50.3      66.7      47.7       0       1     257     257    1027    0.00
    11/25/2014 07:40      26    19.8      0.40        52.2      66.7      47.7       0       0       0     244    1028    0.00
    11/25/2014 07:50      24    17.4      0.40        53.8      66.7      47.7       0       2     143     142    1028    0.00
    11/25/2014 08:00      25    20.6      0.40        55.1      66.7      47.7       1       3     120     100    1028    0.00
    11/25/2014 08:10      26    21.4      0.40        55.6      66.7      47.7       0       2     144     131    1028    0.00
    11/25/2014 08:20      24    21.0      0.40        56.2      66.7      47.7       0       2     114     102    1028    0.00
    11/25/2014 08:30      28    23.1      0.40        56.8      66.7      47.7       0       2     162     166    1028    0.00
    11/25/2014 08:40      23    21.5      0.40        57.6      66.7      47.7       0       2     169     166    1028    0.00
    11/25/2014 08:50      22    20.6      0.40        58.6      66.7      47.7       0       0       0     188    1028    0.00
    11/25/2014 09:00      21    18.6      0.40        60.4      66.7      47.7       0       0       0     187    1028    0.00
    11/25/2014 09:10      16    17.2      0.40        62.9      66.7      47.7       0       1     248     256    1028    0.00
    11/25/2014 09:20      14    15.8      0.40        64.9      66.7      47.7       0       2     245     256    1028    0.00
    11/25/2014 09:30      13    14.4      0.40        65.8      66.7      47.7       0       2     248     251    1028    0.00
    11/25/2014 09:40      14    15.8      0.40        66.7      67.2      47.7       1       3     205     200    1028    0.00
    11/25/2014 09:50      13    16.3      0.40        67.2      68.4      47.7       2       3     208     207    1028    0.00
    11/25/2014 10:00      13    15.7      0.40        68.5      69.0      47.7       2       4     219     182    1028    0.00
    11/25/2014 10:10      14    16.3      0.40        67.8      69.0      47.7       4       7     191     192    1028    0.00
    11/25/2014 10:20      12    15.9      0.40        69.0      70.2      47.7       3       6     210     180    1027    0.00
    11/25/2014 10:30      12    16.6      0.40        69.8      70.4      47.7       3       6     177     187    1027    0.00
    11/25/2014 10:40      11    14.6      0.40        71.0      71.4      47.7       1       3     219     264    1027    0.00
    11/25/2014 10:50      11    14.5      0.40        71.8      73.1      47.7       1       4     217     184    1027    0.00
    11/25/2014 11:00       9    14.9      0.40        73.7      74.1      47.7       1       4     218     245    1027    0.00
    11/25/2014 11:10      12    14.9      0.40        74.3      75.1      47.7       1       4     210     182    1026    0.00
    11/25/2014 11:20      10    16.1      0.40        74.5      75.3      47.7       3       5     202     203    1026    0.00
    11/25/2014 11:30       7    13.1      0.40        74.9      76.0      47.7       2       4     215     190    1026    0.00
    11/25/2014 11:40       7     6.8      0.40        77.5      78.4      47.7       1       6     320     335    1026    0.00
    11/25/2014 11:50       6     7.6      0.40        78.5      78.8      47.7       3       7     288     234    1025    0.00
    11/25/2014 12:00       7     7.6      0.40        79.1      79.6      47.7       2       6     267     259    1025    0.00
    11/25/2014 12:10       6     8.5      0.40        78.7      79.6      47.7       3       7     294     291    1025    0.00
    11/25/2014 12:20       6     6.8      0.40        78.9      79.6      47.7       3       7     293     290    1025    0.00
    11/25/2014 12:30       6     6.2      0.40        79.2      79.6      47.7       3       5     297     321    1025    0.00
    11/25/2014 12:40       6     5.4      0.40        79.4      79.9      47.7       3       9     335     341    1024    0.00
    11/25/2014 12:50       6     6.0      0.40        79.7      80.2      47.7       3       9     330     324    1024    0.00
    11/25/2014 13:00       6     5.9      0.40        79.9      80.5      47.7       3       9     346       0    1024    0.00
    11/25/2014 13:10       6     6.0      0.40        80.1      80.7      47.7       5      11     356     349    1024    0.00
    11/25/2014 13:20       6     5.7      0.40        80.0      80.7      47.7       5      12       3       1    1024    0.00
    11/25/2014 13:30       6     6.3      0.40        80.5      80.9      47.7       5      11     357     346    1024    0.00
    11/25/2014 13:40       5     6.7      0.40        81.0      81.6      47.7       4       9       1     340    1024    0.00
    11/25/2014 13:50       5     6.6      0.40        81.4      81.9      47.7       4      10     349     340    1023    0.00
    11/25/2014 14:00       6     6.7      0.40        81.6      81.9      47.7       2       8     332     323    1023    0.00
    11/25/2014 14:10       6     6.6      0.40        81.7      82.0      47.7       4      10     330     344    1023    0.00
    11/25/2014 14:20       6     7.1      0.40        82.0      82.3      47.7       3       8     335       0    1023    0.00
    11/25/2014 14:30       5     6.4      0.40        81.8      82.3      47.7       2       8     324     345    1023    0.00
    11/25/2014 14:40       5     6.1      0.40        81.7      82.3      47.7       3       7     335     321    1023    0.00
    11/25/2014 14:50       7     6.4      0.40        81.7      82.3      47.7       3       8     302     323    1023    0.00
    11/25/2014 15:00       6     9.6      0.40        81.5      82.3      47.7       2       6     279     268    1023    0.00
    11/25/2014 15:10       6     8.0      0.40        81.7      82.3      47.7       2       8     307     323    1023    0.00
    11/25/2014 15:20       8     7.8      0.40        81.0      82.3      47.7       3       9     291     252    1023    0.00
    11/25/2014 15:30       9    14.7      0.40        78.8      82.3      47.7       6      14     265     268    1023    0.00
    11/25/2014 15:40      10    15.0      0.40        77.6      82.3      47.7       5      10     275     238    1023    0.00
    11/25/2014 15:50      10    15.9      0.40        77.0      82.3      47.7       5      10     272     258    1023    0.00
    11/25/2014 16:00      11    16.3      0.40        76.6      82.3      47.7       4       8     267     251    1023    0.00
    11/25/2014 16:10      11    17.2      0.40        75.6      82.3      47.7       5      10     267     267    1023    0.00
    11/25/2014 16:20      12    17.6      0.40        74.5      82.3      47.7       4       8     261     262    1023    0.00
    11/25/2014 16:30      12    18.6      0.40        73.7      82.3      47.7       5       9     255     246    1023    0.00
    11/25/2014 16:40      13    19.0      0.40        73.0      82.3      47.7       4       7     255     258    1023    0.00
    11/25/2014 16:50      14    19.4      0.40        72.0      82.3      47.7       2       7     258     250    1023    0.00
    11/25/2014 17:00      14    19.4      0.40        71.1      82.3      47.7       3       8     265     249    1023    0.00
    11/25/2014 17:10      15    19.7      0.40        70.2      82.3      47.7       2       4     254     241    1023    0.00
    11/25/2014 17:20      15    20.0      0.40        68.6      82.3      47.7       1       2     240     245    1023    0.00
    11/25/2014 17:30      15    18.7      0.40        67.4      82.3      47.7       1       3     266     256    1023    0.00
    11/25/2014 17:40      15    17.6      0.40        67.1      82.3      47.7       0       2     306     302    1023    0.00
    11/25/2014 17:50      16    18.8      0.40        66.7      82.3      47.7       0       2     312     289    1023    0.00
    11/25/2014 18:00      16    18.9      0.40        65.9      82.3      47.7       0       1     294     308    1023    0.00
    11/25/2014 18:10      15    17.3      0.40        65.3      82.3      47.7       1       3     326     335    1024    0.00
    11/25/2014 18:20      14    15.8      0.40        65.8      82.3      47.7       2       4     348      12    1024    0.00
    11/25/2014 18:30      21    18.2      0.40        65.4      82.3      47.7       1       4     316       6    1024    0.00
    11/25/2014 18:40      17    19.3      0.40        62.8      82.3      47.7       0       0       0     271    1024    0.00
    11/25/2014 18:50      20    17.8      0.40        62.8      82.3      47.7       0       0       0     149    1024    0.00
    11/25/2014 19:00      21    22.6      0.40        61.9      82.3      47.7       0       0       0     214    1024    0.00
    11/25/2014 19:10      22    22.8      0.40        61.3      82.3      47.7       0       2     264     293    1024    0.00
    11/25/2014 19:20      21    21.4      0.40        61.6      82.3      47.7       0       1     229     232    1024    0.00
    11/25/2014 19:30      22    21.7      0.40        61.5      82.3      47.7       0       0       0       6    1024    0.00
    11/25/2014 19:40      26    23.4      0.40        60.3      82.3      47.7       0       2      95      91    1024    0.00
    11/25/2014 19:50      25    23.6      0.40        59.4      82.3      47.7       0       2     293     294    1024    0.00
    11/25/2014 20:00      24    23.9      0.40        59.3      82.3      47.7       2       3     318     291    1024    0.00
    11/25/2014 20:10      26    24.0      0.40        58.6      82.3      47.7       0       2     129     129    1024    0.00
    11/25/2014 20:20      25    22.9      0.40        58.8      82.3      47.7       0       2     352     351    1024    0.00
    11/25/2014 20:30      25    23.1      0.40        58.7      82.3      47.7       0       1     340     343    1024    0.00
    11/25/2014 20:40      26    23.4      0.40        58.6      82.3      47.7       0       0       0      11    1024    0.00
    11/25/2014 20:50      28    23.9      0.40        58.3      82.3      47.7       0       0       0      18    1024    0.00
    11/25/2014 21:00      28    24.5      0.40        57.3      82.3      47.7       0       0       0      80    1024    0.00
    11/25/2014 21:10      29    24.1      0.40        56.9      82.3      47.7       0       0       0     328    1024    0.00
    11/25/2014 21:20      31    25.4      0.40        55.3      82.3      47.7       0       0       0     321    1024    0.00
    11/25/2014 21:30      29    24.2      0.40        55.3      82.3      47.7       0       1     336     336    1024    0.00
    11/25/2014 21:40      28    23.4      0.40        55.9      82.3      47.7       0       2     330     332    1024    0.00
    11/25/2014 21:50      28    23.3      0.40        55.6      82.3      47.7       1       2     329     331    1024    0.00
    11/25/2014 22:00      27    23.1      0.40        56.0      82.3      47.7       2       2     343     354    1024    0.00
    11/25/2014 22:10      25    22.0      0.40        56.6      82.3      47.7       2       3     340     351    1024    0.00
    11/25/2014 22:20      27    21.7      0.40        56.2      82.3      47.7       0       2     342     339    1024    0.00
    11/25/2014 22:30      29    23.1      0.40        55.4      82.3      47.7       0       0       0     348    1024    0.00
    11/25/2014 22:40      30    23.1      0.40        54.3      82.3      47.7       0       0       0      88    1024    0.00
    11/25/2014 22:50      30    23.6      0.40        53.9      82.3      47.7       0       0       0      70    1024    0.00
    11/25/2014 23:00      34    24.6      0.40        53.1      82.3      47.7       0       0     323     322    1024    0.00
    11/25/2014 23:10      34    25.1      0.40        52.3      82.3      47.7       0       0       0     312    1024    0.00
    11/25/2014 23:20      33    24.2      0.40        52.1      82.3      47.7       0       0       0     280    1024    0.00
    11/25/2014 23:30      31    24.2      0.40        52.7      82.3      47.7       0       1     327     325    1024    0.00
    11/25/2014 23:40      32    24.0      0.40        53.2      82.3      47.7       0       1     344     343    1024    0.00
    11/25/2014 23:50      32    24.4      0.40        53.1      82.3      47.7       1       2     337     335    1024    0.00
    11/26/2014 00:00      33    24.5      0.40        53.1      82.3      47.7       1       2     331     329    1024    0.00
    11/26/2014 00:10      31    24.7      0.40        52.9      53.3      52.6       0       2     335     340    1024    0.00
    11/26/2014 00:20      34    23.9      0.40        52.6      53.3      52.2       0       0       0     338    1023    0.00
    11/26/2014 00:30      35    24.4      0.40        52.3      53.3      51.5       0       2     337     341    1023    0.00
    11/26/2014 00:40      35    24.6      0.40        51.2      53.3      50.8       0       0       0     314    1023    0.00
    11/26/2014 00:50      34    24.6      0.40        51.2      53.3      50.8       0       0       0     334    1023    0.00
    11/26/2014 01:00      34    25.1      0.40        51.9      53.3      50.8       0       1     341     339    1023    0.00
    11/26/2014 01:10      37    25.1      0.40        51.3      53.3      50.5       0       0       0      47    1023    0.00
    11/26/2014 01:20      37    24.7      0.40        50.5      53.3      50.2       0       1     337     337    1023    0.00
    11/26/2014 01:30      36    24.4      0.40        51.0      53.3      50.2       0       1     338     337    1023    0.00
    11/26/2014 01:40      39    25.2      0.40        50.6      53.3      50.2       0       0       0     333    1023    0.00
    11/26/2014 01:50      35    25.1      0.40        50.8      53.3      50.2       0       2     338     330    1023    0.00
    11/26/2014 02:00      35    24.3      0.40        51.0      53.3      50.2       1       2     331     345    1023    0.00
    11/26/2014 02:10      38    25.2      0.40        50.4      53.3      49.7       1       3     138     142    1023    0.00
    11/26/2014 02:20      36    24.3      0.40        50.6      53.3      49.7       0       1     343     341    1023    0.00
    11/26/2014 02:30      36    24.7      0.40        50.4      53.3      49.7       0       0       0      94    1023    0.00